createdAt,value
2022-12-08T00:00:26.249Z,99541.40
2022-12-08T00:03:08.665Z,99546.00
2022-12-08T00:05:56.563Z,99542.60
2022-12-08T00:08:54.655Z,99538.60
2022-12-08T00:11:23.494Z,99538.00
2022-12-08T00:13:52.398Z,99542.20
2022-12-08T00:16:21.280Z,99539.20
2022-12-08T00:18:50.215Z,99543.40
2022-12-08T00:21:19.018Z,99537.80
2022-12-08T00:23:47.695Z,99539.60
2022-12-08T00:26:16.546Z,99536.60
2022-12-08T00:28:45.461Z,99538.20
2022-12-08T00:31:33.670Z,99534.80
2022-12-08T00:34:11.056Z,99533.40
2022-12-08T00:37:19.738Z,99535.60
2022-12-08T00:40:02.807Z,99533.00
2022-12-08T00:42:38.898Z,99537.60
2022-12-08T00:45:14.590Z,99541.40
2022-12-08T00:48:14.468Z,99539.80
2022-12-08T00:50:43.289Z,99541.20
2022-12-08T00:53:17.930Z,99538.80
2022-12-08T00:56:12.346Z,99543.60
2022-12-08T00:58:45.598Z,99536.60
2022-12-08T01:01:19.798Z,99536.60
2022-12-08T01:03:53.015Z,99537.40
2022-12-08T01:06:29.563Z,99537.40
2022-12-08T01:09:06.824Z,99545.60
2022-12-08T01:11:42.016Z,99547.00
2022-12-08T01:14:16.597Z,99541.00
2022-12-08T01:16:50.899Z,99535.60
2022-12-08T01:19:24.831Z,99536.60
2022-12-08T01:22:03.720Z,99536.40
2022-12-08T01:24:37.736Z,99543.00
2022-12-08T01:27:08.360Z,99545.80
2022-12-08T01:29:44.250Z,99537.80
2022-12-08T01:32:13.960Z,99536.20
2022-12-08T01:34:43.940Z,99541.00
2022-12-08T01:37:12.973Z,99540.60
2022-12-08T01:39:41.674Z,99543.00
2022-12-08T01:42:22.734Z,99544.20
2022-12-08T01:45:03.884Z,99545.60
2022-12-08T01:47:43.942Z,99543.40
2022-12-08T01:50:17.694Z,99551.60
2022-12-08T01:53:05.231Z,99547.80
2022-12-08T01:55:47.474Z,99545.80
2022-12-08T01:58:23.593Z,99547.80
2022-12-08T02:00:53.020Z,99539.00
2022-12-08T02:03:35.794Z,99539.80
2022-12-08T02:06:10.422Z,99531.40
2022-12-08T02:08:46.034Z,99539.20
2022-12-08T02:11:22.011Z,99534.80
2022-12-08T02:13:57.810Z,99537.60
2022-12-08T02:17:01.791Z,99540.80
2022-12-08T02:20:15.937Z,99545.80
2022-12-08T02:23:07.564Z,99539.80
2022-12-08T02:26:08.317Z,99540.00
2022-12-08T02:29:14.684Z,99536.00
2022-12-08T02:32:08.991Z,99537.80
2022-12-08T02:35:14.762Z,99529.40
2022-12-08T02:38:08.994Z,99523.40
2022-12-08T02:41:07.323Z,99529.80
2022-12-08T02:43:51.545Z,99533.20
2022-12-08T02:46:37.467Z,99528.80
2022-12-08T02:49:11.178Z,99521.60
2022-12-08T02:51:39.744Z,99517.20
2022-12-08T02:54:15.929Z,99518.40
2022-12-08T02:57:30.828Z,99518.80
2022-12-08T03:00:23.566Z,99520.00
2022-12-08T03:03:42.929Z,99520.80
2022-12-08T03:07:05.285Z,99518.60
2022-12-08T03:09:43.065Z,99518.80
2022-12-08T03:12:52.846Z,99515.00
2022-12-08T03:15:23.396Z,99518.40
2022-12-08T03:17:58.468Z,99515.20
2022-12-08T03:20:31.424Z,99512.40
2022-12-08T03:23:05.332Z,99510.60
2022-12-08T03:25:44.003Z,99506.00
2022-12-08T03:28:13.229Z,99501.40
2022-12-08T03:30:46.540Z,99502.40
2022-12-08T03:33:30.725Z,99503.60
2022-12-08T03:36:02.884Z,99506.60
2022-12-08T03:38:41.031Z,99504.80
2022-12-08T03:41:20.224Z,99511.80
2022-12-08T03:44:01.212Z,99516.60
2022-12-08T03:48:59.132Z,99516.40
2022-12-08T03:51:28.294Z,99513.40
2022-12-08T03:53:57.133Z,99512.80
2022-12-08T03:56:36.688Z,99512.20
2022-12-08T03:59:07.712Z,99517.40
2022-12-08T04:01:37.017Z,99507.00
2022-12-08T04:04:05.902Z,99502.40
2022-12-08T04:06:34.696Z,99497.20
2022-12-08T04:09:03.386Z,99498.80
2022-12-08T04:11:32.022Z,99502.60
2022-12-08T04:14:00.709Z,99497.40
2022-12-08T04:16:29.474Z,99493.00
2022-12-08T04:18:58.298Z,99490.20
2022-12-08T04:21:27.118Z,99488.40
2022-12-08T04:24:00.834Z,99486.80
2022-12-08T04:26:30.133Z,99488.00
2022-12-08T04:28:58.887Z,99486.40
2022-12-08T04:31:27.711Z,99488.60
2022-12-08T04:33:56.458Z,99482.00
2022-12-08T04:36:25.301Z,99480.40
2022-12-08T04:38:54.400Z,99478.00
2022-12-08T04:41:23.112Z,99479.80
2022-12-08T04:43:51.890Z,99479.40
2022-12-08T04:46:20.779Z,99475.00
2022-12-08T04:48:49.671Z,99474.80
2022-12-08T04:51:20.704Z,99472.40
2022-12-08T04:53:49.528Z,99470.80
2022-12-08T04:56:20.114Z,99475.40
2022-12-08T04:58:49.060Z,99470.60
2022-12-08T05:01:18.166Z,99467.80
2022-12-08T05:03:46.895Z,99464.20
2022-12-08T05:06:16.031Z,99459.00
2022-12-08T05:08:44.957Z,99465.60
2022-12-08T05:11:14.527Z,99461.80
2022-12-08T05:13:43.397Z,99460.40
2022-12-08T05:16:16.040Z,99461.00
2022-12-08T05:18:44.968Z,99464.20
2022-12-08T05:21:13.633Z,99464.00
2022-12-08T05:23:42.355Z,99464.40
2022-12-08T05:26:11.093Z,99463.00
2022-12-08T05:28:41.932Z,99468.40
2022-12-08T05:31:16.630Z,99460.00
2022-12-08T05:33:46.597Z,99454.20
2022-12-08T05:36:16.885Z,99453.20
2022-12-08T05:38:47.394Z,99456.40
2022-12-08T05:41:20.468Z,99453.40
2022-12-08T05:43:49.797Z,99456.80
2022-12-08T05:46:18.678Z,99453.60
2022-12-08T05:48:47.490Z,99451.40
2022-12-08T05:51:24.437Z,99457.80
2022-12-08T05:53:53.971Z,99458.80
2022-12-08T05:56:24.095Z,99452.00
2022-12-08T05:58:52.830Z,99452.40
2022-12-08T06:01:27.852Z,99446.20
2022-12-08T06:03:59.691Z,99447.20
2022-12-08T06:06:29.732Z,99449.00
2022-12-08T06:08:58.388Z,99440.00
2022-12-08T06:11:31.371Z,99445.40
2022-12-08T06:14:00.708Z,99451.00
2022-12-08T06:16:30.184Z,99448.60
2022-12-08T06:18:59.008Z,99447.60
2022-12-08T06:21:27.767Z,99448.00
2022-12-08T06:23:56.683Z,99448.80
2022-12-08T06:26:25.814Z,99450.80
2022-12-08T06:28:54.898Z,99451.80
2022-12-08T06:31:26.582Z,99453.00
2022-12-08T06:33:55.774Z,99450.80
2022-12-08T06:36:27.409Z,99448.60
2022-12-08T06:38:57.590Z,99446.60
2022-12-08T06:41:26.651Z,99452.60
2022-12-08T06:43:59.174Z,99452.20
2022-12-08T06:46:27.973Z,99454.20
2022-12-08T06:48:56.866Z,99456.00
2022-12-08T06:51:25.892Z,99458.80
2022-12-08T06:53:54.613Z,99455.20
2022-12-08T06:56:28.244Z,99453.40
2022-12-08T06:58:57.190Z,99454.00
2022-12-08T07:01:26.021Z,99457.40
2022-12-08T07:03:54.884Z,99454.40
2022-12-08T07:06:25.577Z,99454.20
2022-12-08T07:08:54.157Z,99463.00
2022-12-08T07:11:22.978Z,99459.00
2022-12-08T07:13:51.796Z,99463.40
2022-12-08T07:16:20.569Z,99464.60
2022-12-08T07:18:50.551Z,99461.60
2022-12-08T07:21:19.518Z,99463.80
2022-12-08T07:23:56.056Z,99463.60
2022-12-08T07:26:27.282Z,99463.60
2022-12-08T07:28:56.145Z,99461.00
2022-12-08T07:31:26.487Z,99458.00
2022-12-08T07:33:57.353Z,99455.60
2022-12-08T07:36:26.514Z,99456.60
2022-12-08T07:38:55.367Z,99455.20
2022-12-08T07:41:26.747Z,99450.60
2022-12-08T07:43:57.134Z,99455.60
2022-12-08T07:46:27.018Z,99457.00
2022-12-08T07:48:55.896Z,99458.20
2022-12-08T07:51:25.584Z,99460.40
2022-12-08T07:53:55.257Z,99459.20
2022-12-08T07:56:24.896Z,99462.00
2022-12-08T07:58:53.711Z,99465.20
2022-12-08T08:01:23.809Z,99462.20
2022-12-08T08:03:53.711Z,99461.60
2022-12-08T08:06:23.050Z,99456.00
2022-12-08T08:08:51.771Z,99454.00
2022-12-08T08:11:21.807Z,99450.20
2022-12-08T08:13:52.253Z,99455.20
2022-12-08T08:16:21.592Z,99454.80
2022-12-08T08:18:52.371Z,99452.40
2022-12-08T08:21:45.003Z,99457.00
2022-12-08T08:24:11.454Z,99457.00
2022-12-08T08:26:40.270Z,99452.40
2022-12-08T08:29:09.070Z,99454.60
2022-12-08T08:31:37.709Z,99453.00
2022-12-08T08:34:06.744Z,99453.20
2022-12-08T08:36:36.351Z,99451.00
2022-12-08T08:39:05.256Z,99446.80
2022-12-08T08:41:35.692Z,99444.60
2022-12-08T08:44:05.300Z,99449.80
2022-12-08T08:46:34.260Z,99439.20
2022-12-08T08:49:03.131Z,99440.60
2022-12-08T08:51:31.831Z,99440.60
2022-12-08T08:54:00.551Z,99436.20
2022-12-08T08:56:29.251Z,99431.60
2022-12-08T08:58:58.110Z,99429.80
2022-12-08T09:01:28.953Z,99435.00
2022-12-08T09:03:58.323Z,99437.80
2022-12-08T09:06:28.752Z,99436.60
2022-12-08T09:08:57.771Z,99430.00
2022-12-08T09:11:26.595Z,99428.60
2022-12-08T09:13:56.191Z,99427.40
2022-12-08T09:16:25.228Z,99431.60
2022-12-08T09:18:54.697Z,99427.20
2022-12-08T09:21:27.077Z,99424.60
2022-12-08T09:23:59.062Z,99420.60
2022-12-08T09:26:30.702Z,99426.40
2022-12-08T09:29:00.383Z,99424.20
2022-12-08T09:31:29.176Z,99422.80
2022-12-08T09:33:58.046Z,99422.20
2022-12-08T09:36:27.069Z,99416.00
2022-12-08T09:38:56.301Z,99413.20
2022-12-08T09:41:40.660Z,99412.20
2022-12-08T09:45:00.265Z,99416.80
2022-12-08T09:47:38.146Z,99410.60
2022-12-08T09:50:18.552Z,99405.80
2022-12-08T09:53:17.385Z,99407.80
2022-12-08T09:56:00.540Z,99407.80
2022-12-08T09:59:24.221Z,99400.60
2022-12-08T10:01:53.132Z,99397.00
2022-12-08T10:04:32.717Z,99397.40
2022-12-08T10:07:23.100Z,99395.00
2022-12-08T10:10:26.348Z,99391.00
2022-12-08T10:13:08.776Z,99391.80
2022-12-08T10:15:50.197Z,99389.40
2022-12-08T10:18:30.798Z,99386.00
2022-12-08T10:21:16.990Z,99385.60
2022-12-08T10:23:51.748Z,99379.40
2022-12-08T10:26:22.827Z,99379.60
2022-12-08T10:28:52.807Z,99377.60
2022-12-08T10:31:25.533Z,99375.60
2022-12-08T10:34:10.781Z,99372.80
2022-12-08T10:36:58.619Z,99372.00
2022-12-08T10:39:47.183Z,99367.20
2022-12-08T10:42:15.988Z,99363.00
2022-12-08T10:45:20.642Z,99364.00
2022-12-08T10:48:26.043Z,99368.60
2022-12-08T10:50:58.302Z,99366.20
2022-12-08T10:53:29.728Z,99364.20
2022-12-08T10:56:04.187Z,99362.20
2022-12-08T10:58:36.126Z,99356.80
2022-12-08T11:01:22.804Z,99360.00
2022-12-08T11:04:01.156Z,99358.20
2022-12-08T11:06:29.748Z,99357.20
2022-12-08T11:09:07.939Z,99355.20
2022-12-08T11:11:58.777Z,99353.00
2022-12-08T11:14:32.589Z,99349.80
2022-12-08T11:17:14.985Z,99350.20
2022-12-08T11:20:01.529Z,99347.00
2022-12-08T11:22:40.063Z,99343.20
2022-12-08T11:25:08.745Z,99340.40
2022-12-08T11:28:00.224Z,99337.60
2022-12-08T11:30:37.373Z,99335.80
2022-12-08T11:33:22.670Z,99335.20
2022-12-08T11:36:15.445Z,99338.60
2022-12-08T11:38:49.642Z,99338.20
2022-12-08T11:41:29.450Z,99337.60
2022-12-08T11:44:16.007Z,99336.60
2022-12-08T11:46:54.402Z,99335.60
2022-12-08T11:49:35.171Z,99335.20
2022-12-08T11:52:12.461Z,99330.40
2022-12-08T11:54:52.301Z,99331.40
2022-12-08T11:57:24.742Z,99329.60
2022-12-08T11:59:57.862Z,99326.20
2022-12-08T12:02:36.201Z,99325.20
2022-12-08T12:06:05.770Z,99321.60
2022-12-08T12:09:01.183Z,99319.00
2022-12-08T12:12:04.764Z,99317.80
2022-12-08T12:14:53.304Z,99321.20
2022-12-08T12:18:20.822Z,99321.80
2022-12-08T12:21:10.762Z,99324.20
2022-12-08T12:23:44.740Z,99319.40
2022-12-08T12:26:59.021Z,99321.40
2022-12-08T12:29:33.962Z,99325.80
2022-12-08T12:32:07.842Z,99323.80
2022-12-08T12:34:44.863Z,99319.00
2022-12-08T12:37:36.924Z,99318.40
2022-12-08T12:40:29.303Z,99318.40
2022-12-08T12:42:57.861Z,99316.60
2022-12-08T12:45:32.816Z,99318.20
2022-12-08T12:48:01.639Z,99316.00
2022-12-08T12:50:33.617Z,99319.40
2022-12-08T12:53:17.682Z,99318.00
2022-12-08T12:55:46.516Z,99315.60
2022-12-08T12:58:37.705Z,99318.20
2022-12-08T13:01:09.134Z,99316.40
2022-12-08T13:04:07.783Z,99314.20
2022-12-08T13:06:46.003Z,99310.60
2022-12-08T13:09:35.488Z,99304.80
2022-12-08T13:12:24.543Z,99304.60
2022-12-08T13:15:03.066Z,99300.80
2022-12-08T13:17:38.672Z,99303.20
2022-12-08T13:20:23.356Z,99305.20
2022-12-08T13:22:54.796Z,99305.00
2022-12-08T13:25:47.767Z,99304.20
2022-12-08T13:28:16.328Z,99304.20
2022-12-08T13:30:57.954Z,99305.00
2022-12-08T13:33:30.416Z,99307.80
2022-12-08T13:36:13.775Z,99302.80
2022-12-08T13:38:47.497Z,99303.60
2022-12-08T13:41:24.787Z,99298.00
2022-12-08T13:44:50.796Z,99303.40
2022-12-08T13:47:32.200Z,99300.60
2022-12-08T13:58:36.675Z,99299.00
2022-12-08T14:01:05.847Z,99300.60
2022-12-08T14:06:58.960Z,99294.00
2022-12-08T14:09:38.421Z,99295.00
2022-12-08T14:12:28.697Z,99306.80
2022-12-08T14:15:06.549Z,99298.00
2022-12-08T14:17:35.459Z,99301.20
2022-12-08T14:20:13.414Z,99306.60
2022-12-08T14:22:42.478Z,99309.20
2022-12-08T14:25:17.037Z,99311.00
2022-12-08T14:27:48.031Z,99319.40
2022-12-08T14:30:26.487Z,99321.80
2022-12-08T14:32:59.153Z,99322.80
2022-12-08T14:35:37.021Z,99324.20
2022-12-08T14:38:16.679Z,99321.60
2022-12-08T14:41:05.937Z,99329.60
2022-12-08T14:43:35.734Z,99326.80
2022-12-08T14:46:20.641Z,99336.00
2022-12-08T14:48:49.387Z,99337.40
2022-12-08T14:51:23.837Z,99329.20
2022-12-08T14:54:03.498Z,99327.80
2022-12-08T14:56:39.530Z,99329.60
2022-12-08T14:59:26.563Z,99328.00
2022-12-08T15:02:25.897Z,99327.80
2022-12-08T15:05:13.041Z,99325.20
2022-12-08T15:07:56.083Z,99328.20
2022-12-08T15:10:32.296Z,99329.00
2022-12-08T15:13:22.306Z,99333.00
2022-12-08T15:15:56.984Z,99333.20
2022-12-08T15:18:39.776Z,99334.40
2022-12-08T15:21:13.222Z,99329.60
2022-12-08T15:23:50.250Z,99326.20
2022-12-08T15:26:28.934Z,99328.80
2022-12-08T15:29:17.404Z,99326.80
2022-12-08T15:31:49.660Z,99329.40
2022-12-08T15:34:21.853Z,99331.20
2022-12-08T15:36:53.841Z,99327.40
2022-12-08T15:39:38.779Z,99330.00
2022-12-08T15:42:13.598Z,99328.80
2022-12-08T15:44:43.595Z,99333.20
2022-12-08T15:47:25.953Z,99331.60
2022-12-08T15:49:55.033Z,99338.40
2022-12-08T15:52:25.374Z,99341.60
2022-12-08T15:54:55.335Z,99339.60
2022-12-08T15:58:04.471Z,99337.60
2022-12-08T16:05:17.950Z,99336.40
2022-12-08T16:09:32.589Z,99327.20
2022-12-08T16:12:20.390Z,99325.20
2022-12-08T16:17:40.561Z,99328.80
2022-12-08T16:20:18.366Z,99327.20
2022-12-08T16:23:07.588Z,99324.60
2022-12-08T16:26:00.078Z,99328.80
2022-12-08T16:28:52.858Z,99325.40
2022-12-08T16:31:21.392Z,99326.80
2022-12-08T16:33:52.661Z,99327.60
2022-12-08T16:36:21.288Z,99321.20
2022-12-08T16:38:49.902Z,99323.60
2022-12-08T16:41:37.276Z,99330.80
2022-12-08T16:44:06.922Z,99323.00
2022-12-08T16:46:36.363Z,99323.60
2022-12-08T16:49:08.081Z,99322.60
2022-12-08T16:51:36.743Z,99319.60
2022-12-08T16:54:05.433Z,99312.80
2022-12-08T16:56:34.121Z,99319.00
2022-12-08T16:59:03.040Z,99316.40
2022-12-08T17:01:32.014Z,99320.80
2022-12-08T17:04:29.674Z,99323.80
2022-12-08T17:06:53.164Z,99320.40
2022-12-08T17:09:21.979Z,99322.00
2022-12-08T17:11:50.779Z,99320.80
2022-12-08T17:14:19.518Z,99326.80
2022-12-08T17:16:48.211Z,99323.60
2022-12-08T17:19:17.441Z,99325.20
2022-12-08T17:21:46.259Z,99320.60
2022-12-08T17:24:20.224Z,99320.00
2022-12-08T17:26:51.958Z,99317.20
2022-12-08T17:29:20.618Z,99320.80
2022-12-08T17:31:49.466Z,99318.20
2022-12-08T17:34:18.118Z,99322.00
2022-12-08T17:36:46.854Z,99323.80
2022-12-08T17:39:18.847Z,99331.80
2022-12-08T17:41:48.313Z,99328.00
2022-12-08T17:44:19.992Z,99333.20
2022-12-08T17:46:52.983Z,99331.80
2022-12-08T17:49:25.897Z,99332.80
2022-12-08T17:51:58.725Z,99332.20
2022-12-08T17:54:28.696Z,99328.00
2022-12-08T17:56:59.043Z,99326.40
2022-12-08T17:59:29.581Z,99329.40
2022-12-08T18:01:59.577Z,99329.40
2022-12-08T18:04:29.241Z,99327.00
2022-12-08T18:07:00.587Z,99332.20
2022-12-08T18:09:31.691Z,99326.20
2022-12-08T18:12:00.521Z,99319.40
2022-12-08T18:14:29.149Z,99320.00
2022-12-08T18:17:00.938Z,99323.80
2022-12-08T18:19:29.978Z,99327.20
2022-12-08T18:21:58.818Z,99324.60
2022-12-08T18:24:28.638Z,99318.60
2022-12-08T18:26:58.122Z,99324.40
2022-12-08T18:29:26.866Z,99323.40
2022-12-08T18:31:56.380Z,99321.20
2022-12-08T18:34:25.463Z,99320.80
2022-12-08T18:36:54.335Z,99322.40
2022-12-08T18:39:27.780Z,99318.60
2022-12-08T18:41:59.171Z,99318.00
2022-12-08T18:44:28.117Z,99319.20
2022-12-08T18:46:56.722Z,99314.40
2022-12-08T18:49:26.791Z,99314.20
2022-12-08T18:51:55.619Z,99301.80
2022-12-08T18:54:37.220Z,99309.40
2022-12-08T18:57:13.399Z,99310.80
2022-12-08T18:59:42.320Z,99315.40
2022-12-08T19:02:14.980Z,99307.40
2022-12-08T19:04:44.372Z,99309.60
2022-12-08T19:07:14.982Z,99308.80
2022-12-08T19:09:44.599Z,99309.40
2022-12-08T19:12:13.628Z,99306.40
2022-12-08T19:14:42.727Z,99308.80
2022-12-08T19:17:11.479Z,99310.20
2022-12-08T19:19:40.178Z,99315.80
2022-12-08T19:22:08.987Z,99313.80
2022-12-08T19:24:37.765Z,99309.40
2022-12-08T19:27:06.874Z,99312.60
2022-12-08T19:29:35.759Z,99315.00
2022-12-08T19:32:05.439Z,99308.00
2022-12-08T19:34:34.253Z,99311.60
2022-12-08T19:37:02.931Z,99313.40
2022-12-08T19:39:50.519Z,99315.40
2022-12-08T19:42:39.947Z,99314.20
2022-12-08T19:45:15.564Z,99310.20
2022-12-08T19:47:44.752Z,99310.40
2022-12-08T19:50:34.600Z,99307.60
2022-12-08T19:53:08.482Z,99301.80
2022-12-08T19:55:38.350Z,99300.20
2022-12-08T19:58:08.621Z,99305.80
2022-12-08T20:00:39.426Z,99301.60
2022-12-08T20:03:08.707Z,99295.00
2022-12-08T20:05:40.187Z,99295.60
2022-12-08T20:08:09.050Z,99295.40
2022-12-08T20:10:41.551Z,99296.40
2022-12-08T20:13:30.203Z,99293.00
2022-12-08T20:15:59.567Z,99293.40
2022-12-08T20:18:28.976Z,99302.00
2022-12-08T20:20:57.811Z,99302.00
2022-12-08T20:23:26.530Z,99308.20
2022-12-08T20:25:55.191Z,99305.40
2022-12-08T20:28:24.295Z,99306.60
2022-12-08T20:30:53.137Z,99310.60
2022-12-08T20:33:22.006Z,99307.60
2022-12-08T20:36:04.150Z,99312.60
2022-12-08T20:38:32.985Z,99321.00
2022-12-08T20:41:01.554Z,99321.20
2022-12-08T20:43:30.404Z,99317.20
2022-12-08T20:45:59.317Z,99316.40
2022-12-08T20:48:28.156Z,99319.60
2022-12-08T20:50:56.995Z,99325.80
2022-12-08T20:53:25.690Z,99328.20
2022-12-08T20:55:55.124Z,99327.60
2022-12-08T20:58:31.648Z,99327.20
2022-12-08T21:01:00.871Z,99328.60
2022-12-08T21:03:29.839Z,99327.80
2022-12-08T21:05:59.061Z,99328.40
2022-12-08T21:08:28.086Z,99334.60
2022-12-08T21:10:57.949Z,99333.40
2022-12-08T21:13:26.999Z,99336.80
2022-12-08T21:15:56.000Z,99332.60
2022-12-08T21:18:25.441Z,99331.20
2022-12-08T21:21:05.319Z,99331.00
2022-12-08T21:23:34.788Z,99323.80
2022-12-08T21:26:09.615Z,99324.20
2022-12-08T21:28:38.514Z,99323.40
2022-12-08T21:31:09.805Z,99325.20
2022-12-08T21:33:38.860Z,99328.40
2022-12-08T21:36:13.389Z,99327.00
2022-12-08T21:38:43.607Z,99326.00
2022-12-08T21:41:37.426Z,99329.40
2022-12-08T21:44:09.556Z,99333.60
2022-12-08T21:46:38.984Z,99331.80
2022-12-08T21:49:08.333Z,99332.20
2022-12-08T21:51:41.765Z,99328.80
2022-12-08T21:54:18.302Z,99328.80
2022-12-08T21:56:49.711Z,99332.40
2022-12-08T21:59:19.957Z,99332.00
2022-12-08T22:01:49.309Z,99333.80
2022-12-08T22:04:21.920Z,99334.20
2022-12-08T22:06:50.811Z,99327.20
2022-12-08T22:09:19.758Z,99329.00
2022-12-08T22:11:48.677Z,99328.40
2022-12-08T22:14:17.532Z,99331.20
2022-12-08T22:16:46.475Z,99329.80
2022-12-08T22:19:15.251Z,99327.00
2022-12-08T22:21:44.704Z,99329.80
2022-12-08T22:24:13.718Z,99323.60
2022-12-08T22:26:42.472Z,99329.20
2022-12-08T22:29:11.419Z,99325.80
2022-12-08T22:31:40.546Z,99323.80
2022-12-08T22:34:09.932Z,99327.00
2022-12-08T22:36:38.795Z,99327.40
2022-12-08T22:39:07.537Z,99317.40
2022-12-08T22:41:36.642Z,99318.40
2022-12-08T22:44:09.511Z,99315.40
2022-12-08T22:46:38.611Z,99315.80
2022-12-08T22:49:07.665Z,99319.60
2022-12-08T22:51:37.700Z,99324.80
2022-12-08T22:54:06.495Z,99319.60
2022-12-08T22:56:35.212Z,99320.20
2022-12-08T22:59:08.939Z,99320.80
2022-12-08T23:01:38.281Z,99315.20
2022-12-08T23:04:11.342Z,99310.60
2022-12-08T23:06:43.103Z,99311.40
2022-12-08T23:09:12.183Z,99318.80
2022-12-08T23:11:41.224Z,99325.40
2022-12-08T23:14:10.004Z,99320.40
2022-12-08T23:16:38.957Z,99320.00
2022-12-08T23:19:08.278Z,99312.60
2022-12-08T23:21:37.321Z,99316.60
2022-12-08T23:24:06.406Z,99322.60
2022-12-08T23:26:36.043Z,99322.40
2022-12-08T23:30:19.764Z,99323.40
2022-12-08T23:32:55.724Z,99321.60
2022-12-08T23:35:32.144Z,99331.60
2022-12-08T23:38:05.520Z,99331.20
2022-12-08T23:40:34.695Z,99333.20
2022-12-08T23:43:06.658Z,99331.00
2022-12-08T23:45:35.911Z,99330.20
2022-12-08T23:48:05.277Z,99338.80
2022-12-08T23:50:34.437Z,99339.40
2022-12-08T23:53:03.367Z,99331.60
2022-12-08T23:58:49.277Z,99328.20
